createdAt,value
2019-03-27T00:00:16.176Z,8.92
2019-03-27T00:02:44.016Z,8.86
2019-03-27T00:05:12.256Z,8.87
2019-03-27T00:07:40.035Z,8.90
2019-03-27T00:10:09.238Z,8.88
2019-03-27T00:12:37.130Z,8.89
2019-03-27T00:15:12.751Z,8.85
2019-03-27T00:17:36.292Z,8.84
2019-03-27T00:20:04.920Z,8.84
2019-03-27T00:22:32.747Z,8.86
2019-03-27T00:25:00.530Z,8.83
2019-03-27T00:27:28.398Z,8.87
2019-03-27T00:29:56.204Z,8.92
2019-03-27T00:32:24.007Z,8.88
2019-03-27T00:34:51.835Z,8.95
2019-03-27T00:37:19.639Z,8.96
2019-03-27T00:39:47.451Z,8.92
2019-03-27T00:42:15.261Z,8.87
2019-03-27T00:44:43.067Z,8.90
2019-03-27T00:47:10.933Z,8.85
2019-03-27T00:49:38.721Z,8.86
2019-03-27T00:52:06.494Z,8.85
2019-03-27T00:54:34.378Z,8.89
2019-03-27T00:57:02.202Z,8.93
2019-03-27T00:59:30.058Z,8.88
2019-03-27T01:01:57.849Z,8.92
2019-03-27T01:04:25.657Z,8.91
2019-03-27T01:06:53.477Z,8.96
2019-03-27T01:09:21.429Z,9.00
2019-03-27T01:11:49.259Z,9.03
2019-03-27T01:14:17.061Z,8.97
2019-03-27T01:16:44.952Z,9.01
2019-03-27T01:19:12.793Z,8.99
2019-03-27T01:21:40.599Z,9.02
2019-03-27T01:24:08.448Z,9.06
2019-03-27T01:26:36.263Z,9.10
2019-03-27T01:29:04.060Z,9.14
2019-03-27T01:31:31.919Z,8.98
2019-03-27T01:33:59.795Z,8.98
2019-03-27T01:36:27.613Z,9.00
2019-03-27T01:38:55.496Z,8.93
2019-03-27T01:41:23.299Z,8.91
2019-03-27T01:43:51.082Z,8.91
2019-03-27T01:46:18.951Z,8.94
2019-03-27T01:48:46.813Z,8.91
2019-03-27T01:51:14.639Z,8.88
2019-03-27T01:53:42.504Z,8.82
2019-03-27T01:56:10.319Z,8.82
2019-03-27T01:58:38.198Z,8.90
2019-03-27T02:01:06.109Z,8.87
2019-03-27T02:03:33.993Z,8.89
2019-03-27T02:06:01.899Z,8.90
2019-03-27T02:08:29.723Z,8.90
2019-03-27T02:10:57.551Z,8.83
2019-03-27T02:13:25.326Z,8.83
2019-03-27T02:16:05.863Z,8.73
2019-03-27T02:18:22.880Z,8.63
2019-03-27T02:20:50.823Z,8.70
2019-03-27T02:23:18.637Z,8.72
2019-03-27T02:25:46.416Z,8.75
2019-03-27T02:28:14.242Z,8.79
2019-03-27T02:30:42.021Z,8.76
2019-03-27T02:33:09.819Z,8.76
2019-03-27T02:35:37.662Z,8.73
2019-03-27T02:38:05.554Z,8.76
2019-03-27T02:40:33.440Z,8.78
2019-03-27T02:43:01.296Z,8.80
2019-03-27T02:45:29.078Z,8.87
2019-03-27T02:47:56.955Z,8.80
2019-03-27T02:50:24.831Z,8.78
2019-03-27T02:52:52.669Z,8.84
2019-03-27T02:55:20.547Z,8.88
2019-03-27T02:57:48.390Z,8.86
2019-03-27T03:00:17.146Z,8.91
2019-03-27T03:02:44.935Z,8.84
2019-03-27T03:05:12.946Z,8.84
2019-03-27T03:07:40.782Z,8.78
2019-03-27T03:10:09.481Z,8.76
2019-03-27T03:12:37.308Z,8.74
2019-03-27T03:15:06.494Z,8.67
2019-03-27T03:17:34.372Z,8.66
2019-03-27T03:20:02.194Z,8.66
2019-03-27T03:22:29.974Z,8.73
2019-03-27T03:24:57.753Z,8.62
2019-03-27T03:27:25.646Z,8.65
2019-03-27T03:29:53.421Z,8.65
2019-03-27T03:32:21.421Z,8.61
2019-03-27T03:34:49.293Z,8.50
2019-03-27T03:37:17.083Z,8.54
2019-03-27T03:39:44.925Z,8.34
2019-03-27T03:42:12.703Z,8.29
2019-03-27T03:44:40.517Z,8.30
2019-03-27T03:47:08.345Z,8.37
2019-03-27T03:49:36.221Z,8.43
2019-03-27T03:52:04.446Z,8.36
2019-03-27T03:54:32.388Z,8.36
2019-03-27T03:57:02.525Z,8.36
2019-03-27T03:59:30.806Z,8.41
2019-03-27T04:02:02.555Z,8.30
2019-03-27T04:04:31.945Z,8.28
2019-03-27T04:06:59.790Z,8.18
2019-03-27T04:09:27.660Z,8.18
2019-03-27T04:11:55.540Z,8.17
2019-03-27T04:14:23.367Z,8.07
2019-03-27T04:16:51.198Z,8.03
2019-03-27T04:19:19.011Z,8.03
2019-03-27T04:21:46.829Z,7.95
2019-03-27T04:24:14.667Z,7.88
2019-03-27T04:26:42.487Z,7.74
2019-03-27T04:29:10.331Z,7.76
2019-03-27T04:31:38.209Z,7.68
2019-03-27T04:34:06.022Z,7.77
2019-03-27T04:36:33.823Z,7.83
2019-03-27T04:39:01.615Z,7.84
2019-03-27T04:41:29.473Z,7.68
2019-03-27T04:43:57.294Z,7.69
2019-03-27T04:46:25.158Z,7.59
2019-03-27T04:48:52.989Z,7.54
2019-03-27T04:51:20.848Z,7.49
2019-03-27T04:53:48.668Z,7.41
2019-03-27T04:56:16.504Z,7.42
2019-03-27T04:58:44.352Z,7.43
2019-03-27T05:01:12.133Z,7.37
2019-03-27T05:03:39.907Z,7.35
2019-03-27T05:06:07.741Z,7.42
2019-03-27T05:08:35.539Z,7.41
2019-03-27T05:11:03.424Z,7.43
2019-03-27T05:13:31.255Z,7.40
2019-03-27T05:15:59.277Z,7.48
2019-03-27T05:18:27.090Z,7.55
2019-03-27T05:20:54.886Z,7.52
2019-03-27T05:23:22.658Z,7.59
2019-03-27T05:25:50.475Z,7.65
2019-03-27T05:28:18.660Z,7.67
2019-03-27T05:30:46.446Z,7.74
2019-03-27T05:33:14.272Z,7.74
2019-03-27T05:35:42.085Z,7.67
2019-03-27T05:38:09.930Z,7.63
2019-03-27T05:40:37.708Z,7.68
2019-03-27T05:43:05.535Z,7.63
2019-03-27T05:45:33.358Z,7.72
2019-03-27T05:48:01.136Z,7.65
2019-03-27T05:50:29.049Z,7.65
2019-03-27T05:52:56.903Z,7.68
2019-03-27T05:55:26.610Z,7.71
2019-03-27T05:57:54.533Z,7.78
2019-03-27T06:00:22.599Z,7.80
2019-03-27T06:02:50.447Z,7.78
2019-03-27T06:05:18.320Z,7.79
2019-03-27T06:07:46.149Z,7.71
2019-03-27T06:10:16.358Z,7.69
2019-03-27T06:12:43.760Z,7.67
2019-03-27T06:15:11.723Z,7.80
2019-03-27T06:17:39.526Z,7.79
2019-03-27T06:20:07.316Z,7.79
2019-03-27T06:22:35.277Z,7.87
2019-03-27T06:25:03.456Z,7.86
2019-03-27T06:27:31.224Z,8.03
2019-03-27T06:29:59.039Z,8.10
2019-03-27T06:32:26.965Z,8.11
2019-03-27T06:34:54.750Z,8.13
2019-03-27T06:37:22.552Z,8.13
2019-03-27T06:39:50.515Z,8.24
2019-03-27T06:42:18.325Z,8.34
2019-03-27T06:44:46.122Z,8.46
2019-03-27T06:47:13.943Z,8.52
2019-03-27T06:49:42.215Z,8.73
2019-03-27T06:52:10.033Z,8.91
2019-03-27T06:54:37.934Z,9.04
2019-03-27T06:57:05.792Z,9.15
2019-03-27T06:59:33.657Z,9.34
2019-03-27T07:02:01.466Z,9.39
2019-03-27T07:04:29.276Z,9.85
2019-03-27T07:06:57.114Z,9.85
2019-03-27T07:09:24.930Z,10.28
2019-03-27T07:11:52.742Z,10.28
2019-03-27T07:14:20.627Z,10.72
2019-03-27T07:16:48.417Z,10.72
2019-03-27T07:19:16.986Z,10.78
2019-03-27T07:21:44.840Z,10.95
2019-03-27T07:24:12.708Z,11.05
2019-03-27T07:26:40.629Z,11.04
2019-03-27T07:29:08.453Z,11.20
2019-03-27T07:31:36.287Z,11.28
2019-03-27T07:34:04.108Z,11.40
2019-03-27T07:36:31.962Z,11.66
2019-03-27T07:39:10.402Z,11.66
2019-03-27T07:41:29.557Z,11.61
2019-03-27T07:43:57.408Z,11.41
2019-03-27T07:46:25.289Z,11.52
2019-03-27T07:48:54.483Z,11.53
2019-03-27T07:51:22.570Z,11.47
2019-03-27T07:53:50.424Z,11.40
2019-03-27T07:56:18.346Z,11.39
2019-03-27T07:58:46.393Z,11.49
2019-03-27T08:01:14.225Z,11.46
2019-03-27T08:03:42.088Z,11.52
2019-03-27T08:06:09.923Z,11.51
2019-03-27T08:08:37.717Z,11.43
2019-03-27T08:11:05.532Z,11.43
2019-03-27T08:13:33.495Z,11.54
2019-03-27T08:16:01.352Z,11.49
2019-03-27T08:18:29.188Z,11.56
2019-03-27T08:20:57.042Z,11.32
2019-03-27T08:23:24.849Z,11.29
2019-03-27T08:25:52.673Z,11.24
2019-03-27T08:28:20.502Z,11.24
2019-03-27T08:30:48.339Z,11.17
2019-03-27T08:33:16.133Z,11.41
2019-03-27T08:35:43.975Z,11.37
2019-03-27T08:38:14.913Z,11.62
2019-03-27T08:40:41.620Z,11.62
2019-03-27T08:43:20.760Z,11.57
2019-03-27T08:45:39.192Z,11.60
2019-03-27T08:48:07.065Z,11.62
2019-03-27T08:50:34.864Z,11.67
2019-03-27T08:53:02.682Z,11.55
2019-03-27T08:55:30.508Z,11.66
2019-03-27T08:57:58.352Z,11.76
2019-03-27T09:00:46.022Z,11.61
2019-03-27T09:03:13.852Z,11.56
2019-03-27T09:05:41.643Z,11.51
2019-03-27T09:08:09.469Z,11.66
2019-03-27T09:10:37.312Z,11.70
2019-03-27T09:13:05.158Z,11.82
2019-03-27T09:15:33.092Z,11.89
2019-03-27T09:18:00.914Z,12.05
2019-03-27T09:20:28.780Z,12.09
2019-03-27T09:22:56.667Z,12.27
2019-03-27T09:25:24.493Z,12.45
2019-03-27T09:27:52.324Z,12.58
2019-03-27T09:30:20.478Z,12.71
2019-03-27T09:32:48.293Z,12.73
2019-03-27T09:35:16.212Z,12.80
2019-03-27T09:37:44.052Z,12.90
2019-03-27T09:40:12.133Z,13.11
2019-03-27T09:42:39.928Z,13.22
2019-03-27T09:45:08.156Z,13.46
2019-03-27T09:47:35.976Z,13.71
2019-03-27T09:50:04.571Z,13.90
2019-03-27T09:52:32.448Z,13.77
2019-03-27T09:55:00.401Z,13.92
2019-03-27T09:57:28.323Z,13.80
2019-03-27T09:59:56.510Z,13.92
2019-03-27T10:02:24.316Z,13.88
2019-03-27T10:04:52.136Z,13.96
2019-03-27T10:07:19.970Z,14.08
2019-03-27T10:09:50.343Z,14.00
2019-03-27T10:12:17.551Z,14.07
2019-03-27T10:14:47.519Z,13.97
2019-03-27T10:17:15.139Z,13.90
2019-03-27T10:19:42.941Z,13.89
2019-03-27T10:22:10.765Z,13.79
2019-03-27T10:24:38.705Z,13.84
2019-03-27T10:27:06.830Z,13.91
2019-03-27T10:29:34.609Z,13.90
2019-03-27T10:32:02.442Z,13.83
2019-03-27T10:34:30.330Z,13.80
2019-03-27T10:36:58.264Z,14.02
2019-03-27T10:39:26.060Z,14.03
2019-03-27T10:41:53.922Z,13.97
2019-03-27T10:44:21.716Z,13.76
2019-03-27T10:46:49.646Z,14.06
2019-03-27T10:49:17.482Z,14.03
2019-03-27T10:51:45.289Z,13.93
2019-03-27T10:54:13.064Z,14.01
2019-03-27T10:56:41.028Z,14.05
2019-03-27T10:59:08.879Z,14.11
2019-03-27T11:01:36.748Z,14.10
2019-03-27T11:04:04.565Z,13.92
2019-03-27T11:06:32.402Z,13.86
2019-03-27T11:09:00.267Z,13.78
2019-03-27T11:11:28.129Z,13.88
2019-03-27T11:13:55.929Z,13.85
2019-03-27T11:16:23.821Z,13.79
2019-03-27T11:18:51.693Z,13.70
2019-03-27T11:21:19.501Z,13.58
2019-03-27T11:23:47.404Z,13.63
2019-03-27T11:26:15.226Z,13.51
2019-03-27T11:28:43.098Z,13.52
2019-03-27T11:31:10.926Z,13.59
2019-03-27T11:33:38.738Z,13.44
2019-03-27T11:36:06.539Z,13.40
2019-03-27T11:38:37.382Z,13.45
2019-03-27T11:41:04.090Z,13.54
2019-03-27T11:43:31.926Z,13.40
2019-03-27T11:45:59.800Z,13.48
2019-03-27T11:48:27.779Z,13.55
2019-03-27T11:50:55.693Z,13.55
2019-03-27T11:53:23.507Z,13.55
2019-03-27T11:55:51.341Z,13.52
2019-03-27T11:58:21.994Z,13.60
2019-03-27T12:00:54.890Z,13.71
2019-03-27T12:03:19.675Z,13.53
2019-03-27T12:05:47.512Z,13.53
2019-03-27T12:08:15.515Z,13.64
2019-03-27T12:10:43.312Z,13.72
2019-03-27T12:13:11.203Z,13.73
2019-03-27T12:15:42.949Z,13.58
2019-03-27T12:18:13.381Z,13.61
2019-03-27T12:20:42.025Z,13.58
2019-03-27T12:23:10.007Z,13.52
2019-03-27T12:25:37.827Z,13.65
2019-03-27T12:28:05.667Z,13.77
2019-03-27T12:30:33.442Z,13.69
2019-03-27T12:33:01.266Z,13.66
2019-03-27T12:35:29.411Z,13.46
2019-03-27T12:37:57.216Z,13.51
2019-03-27T12:40:24.999Z,13.71
2019-03-27T12:42:52.836Z,13.78
2019-03-27T12:45:20.798Z,13.83
2019-03-27T12:47:48.597Z,13.70
2019-03-27T12:50:16.625Z,13.81
2019-03-27T12:52:44.472Z,13.75
2019-03-27T12:55:12.359Z,13.57
2019-03-27T12:57:40.159Z,13.75
2019-03-27T13:00:09.520Z,13.94
2019-03-27T13:02:37.358Z,13.94
2019-03-27T13:05:05.449Z,14.11
2019-03-27T13:07:33.310Z,13.92
2019-03-27T13:10:01.127Z,13.93
2019-03-27T13:12:28.895Z,13.82
2019-03-27T13:14:56.773Z,13.75
2019-03-27T13:17:24.580Z,13.65
2019-03-27T13:19:52.436Z,13.74
2019-03-27T13:22:20.280Z,13.67
2019-03-27T13:24:48.062Z,13.76
2019-03-27T13:27:15.896Z,13.54
2019-03-27T13:29:43.796Z,13.56
2019-03-27T13:32:11.578Z,13.43
2019-03-27T13:34:39.494Z,13.37
2019-03-27T13:37:07.362Z,13.40
2019-03-27T13:39:35.168Z,13.45
2019-03-27T13:42:02.964Z,13.37
2019-03-27T13:44:37.408Z,13.32
2019-03-27T13:47:01.746Z,13.28
2019-03-27T13:49:29.663Z,13.20
2019-03-27T13:51:57.443Z,13.04
2019-03-27T13:54:25.316Z,13.15
2019-03-27T13:56:53.134Z,13.05
2019-03-27T13:59:21.034Z,13.04
2019-03-27T14:01:48.935Z,13.03
2019-03-27T14:04:16.732Z,13.09
2019-03-27T14:06:44.984Z,13.04
2019-03-27T14:09:12.962Z,13.03
2019-03-27T14:11:40.773Z,12.95
2019-03-27T14:14:11.535Z,13.20
2019-03-27T14:16:38.591Z,13.31
2019-03-27T14:19:06.390Z,13.37
2019-03-27T14:21:34.274Z,13.21
2019-03-27T14:24:02.108Z,13.28
2019-03-27T14:26:44.038Z,13.26
2019-03-27T14:28:59.801Z,13.41
2019-03-27T14:31:27.572Z,13.46
2019-03-27T14:33:58.348Z,13.55
2019-03-27T14:36:26.173Z,13.42
2019-03-27T14:38:53.975Z,13.50
2019-03-27T14:41:21.807Z,13.58
2019-03-27T14:43:49.617Z,13.38
2019-03-27T14:46:17.449Z,13.24
2019-03-27T14:48:45.287Z,13.12
2019-03-27T14:51:13.144Z,13.01
2019-03-27T14:53:40.986Z,13.07
2019-03-27T14:56:08.756Z,13.02
2019-03-27T14:58:36.560Z,13.05
2019-03-27T15:01:04.370Z,13.12
2019-03-27T15:03:32.218Z,13.14
2019-03-27T15:06:01.123Z,13.02
2019-03-27T15:08:29.002Z,12.98
2019-03-27T15:10:56.819Z,13.16
2019-03-27T15:13:24.738Z,13.01
2019-03-27T15:15:52.526Z,12.79
2019-03-27T15:18:20.376Z,12.96
2019-03-27T15:20:48.434Z,13.07
2019-03-27T15:23:16.376Z,13.15
2019-03-27T15:25:44.351Z,13.14
2019-03-27T15:28:12.113Z,13.12
2019-03-27T15:30:40.143Z,13.14
2019-03-27T15:33:07.938Z,12.94
2019-03-27T15:35:35.826Z,12.88
2019-03-27T15:38:03.713Z,12.77
2019-03-27T15:40:42.182Z,12.88
2019-03-27T15:43:10.022Z,12.93
2019-03-27T15:45:37.863Z,12.97
2019-03-27T15:48:05.944Z,13.10
2019-03-27T15:50:33.807Z,13.11
2019-03-27T15:53:01.640Z,13.03
2019-03-27T15:55:29.483Z,12.94
2019-03-27T15:57:57.370Z,13.04
2019-03-27T16:00:25.450Z,12.94
2019-03-27T16:02:53.278Z,12.91
2019-03-27T16:05:23.730Z,12.73
2019-03-27T16:07:51.555Z,12.78
2019-03-27T16:10:19.390Z,12.84
2019-03-27T16:12:47.177Z,12.79
2019-03-27T16:15:15.090Z,12.88
2019-03-27T16:17:42.932Z,12.66
2019-03-27T16:20:10.921Z,12.75
2019-03-27T16:22:50.359Z,12.81
2019-03-27T16:25:08.751Z,12.79
2019-03-27T16:27:36.631Z,12.73
2019-03-27T16:30:05.014Z,12.68
2019-03-27T16:32:32.790Z,12.59
2019-03-27T16:35:00.647Z,12.51
2019-03-27T16:37:28.422Z,12.56
2019-03-27T16:39:56.261Z,12.52
2019-03-27T16:42:24.089Z,12.56
2019-03-27T16:44:51.891Z,12.55
2019-03-27T16:47:19.693Z,12.60
2019-03-27T16:49:47.522Z,12.53
2019-03-27T16:52:15.346Z,12.30
2019-03-27T16:54:43.319Z,12.26
2019-03-27T16:57:11.105Z,12.25
2019-03-27T16:59:38.928Z,12.21
2019-03-27T17:02:06.788Z,12.19
2019-03-27T17:04:34.560Z,12.10
2019-03-27T17:07:02.721Z,12.26
2019-03-27T17:09:30.523Z,12.13
2019-03-27T17:11:58.396Z,12.11
2019-03-27T17:14:26.183Z,12.10
2019-03-27T17:16:54.064Z,12.18
2019-03-27T17:19:21.967Z,12.20
2019-03-27T17:21:49.753Z,12.24
2019-03-27T17:24:17.639Z,12.11
2019-03-27T17:26:45.515Z,12.10
2019-03-27T17:29:13.400Z,12.22
2019-03-27T17:31:41.267Z,12.19
2019-03-27T17:34:09.150Z,12.08
2019-03-27T17:36:37.030Z,12.07
2019-03-27T17:39:07.153Z,12.00
2019-03-27T17:41:34.949Z,12.09
2019-03-27T17:44:02.772Z,12.11
2019-03-27T17:46:33.031Z,11.95
2019-03-27T17:49:00.799Z,12.04
2019-03-27T17:51:28.638Z,12.01
2019-03-27T17:53:56.428Z,11.95
2019-03-27T17:56:24.474Z,12.01
2019-03-27T17:58:52.338Z,11.99
2019-03-27T18:01:20.184Z,11.98
2019-03-27T18:03:48.058Z,12.03
2019-03-27T18:06:15.930Z,12.02
2019-03-27T18:08:43.845Z,11.85
2019-03-27T18:11:11.620Z,11.87
2019-03-27T18:13:39.508Z,11.77
2019-03-27T18:16:07.317Z,11.73
2019-03-27T18:18:35.157Z,11.65
2019-03-27T18:21:02.983Z,11.66
2019-03-27T18:23:46.169Z,11.64
2019-03-27T18:26:18.361Z,11.59
2019-03-27T18:28:46.138Z,11.63
2019-03-27T18:31:13.959Z,11.52
2019-03-27T18:33:41.763Z,11.40
2019-03-27T18:36:09.690Z,11.51
2019-03-27T18:38:37.512Z,11.51
2019-03-27T18:41:05.334Z,11.32
2019-03-27T18:43:33.182Z,11.53
2019-03-27T18:46:00.967Z,11.47
2019-03-27T18:48:28.770Z,11.52
2019-03-27T18:50:56.557Z,11.47
2019-03-27T18:53:24.352Z,11.52
2019-03-27T18:55:52.168Z,11.53
2019-03-27T18:58:20.081Z,11.52
2019-03-27T19:00:47.918Z,11.46
2019-03-27T19:03:15.700Z,11.34
2019-03-27T19:05:43.545Z,11.33
2019-03-27T19:08:11.332Z,11.32
2019-03-27T19:10:39.196Z,11.33
2019-03-27T19:13:07.022Z,11.33
2019-03-27T19:15:34.814Z,11.31
2019-03-27T19:18:02.662Z,11.18
2019-03-27T19:20:30.484Z,11.16
2019-03-27T19:22:58.257Z,11.21
2019-03-27T19:25:26.147Z,11.24
2019-03-27T19:27:53.959Z,11.24
2019-03-27T19:30:21.939Z,11.29
2019-03-27T19:32:49.910Z,11.09
2019-03-27T19:35:17.675Z,11.00
2019-03-27T19:37:45.546Z,10.95
2019-03-27T19:40:13.604Z,10.93
2019-03-27T19:42:41.635Z,10.93
2019-03-27T19:45:09.668Z,11.00
2019-03-27T19:47:37.601Z,11.06
2019-03-27T19:50:05.881Z,10.96
2019-03-27T19:52:33.719Z,10.90
2019-03-27T19:55:01.503Z,10.88
2019-03-27T19:57:29.357Z,10.80
2019-03-27T19:59:57.220Z,10.80
2019-03-27T20:02:25.094Z,10.86
2019-03-27T20:04:53.056Z,10.77
2019-03-27T20:07:20.839Z,10.79
2019-03-27T20:09:48.707Z,10.59
2019-03-27T20:12:16.496Z,10.59
2019-03-27T20:14:44.409Z,10.49
2019-03-27T20:17:12.235Z,10.49
2019-03-27T20:19:40.143Z,10.60
2019-03-27T20:22:07.879Z,10.55
2019-03-27T20:24:41.278Z,10.55
2019-03-27T20:27:05.483Z,10.63
2019-03-27T20:29:33.294Z,10.60
2019-03-27T20:32:01.145Z,10.56
2019-03-27T20:34:28.945Z,10.53
2019-03-27T20:36:56.749Z,10.53
2019-03-27T20:39:24.556Z,10.59
2019-03-27T20:41:52.367Z,10.58
2019-03-27T20:44:20.241Z,10.66
2019-03-27T20:46:48.016Z,10.73
2019-03-27T20:49:15.815Z,10.66
2019-03-27T20:51:43.648Z,10.67
2019-03-27T20:54:11.462Z,10.67
2019-03-27T20:56:39.924Z,10.64
2019-03-27T20:59:07.711Z,10.58
2019-03-27T21:01:35.675Z,10.52
2019-03-27T21:04:03.439Z,10.55
2019-03-27T21:06:31.269Z,10.57
2019-03-27T21:08:59.083Z,10.51
2019-03-27T21:11:26.902Z,10.58
2019-03-27T21:13:54.729Z,10.30
2019-03-27T21:16:22.528Z,10.30
2019-03-27T21:18:50.335Z,10.33
2019-03-27T21:21:18.206Z,10.51
2019-03-27T21:23:46.003Z,10.51
2019-03-27T21:26:13.865Z,10.51
2019-03-27T21:28:41.662Z,10.40
2019-03-27T21:31:09.475Z,10.46
2019-03-27T21:33:37.311Z,10.47
2019-03-27T21:36:05.122Z,10.51
2019-03-27T21:38:32.973Z,10.52
2019-03-27T21:41:00.895Z,10.46
2019-03-27T21:43:28.721Z,10.49
2019-03-27T21:45:56.588Z,10.47
2019-03-27T21:48:24.402Z,10.50
2019-03-27T21:50:52.183Z,10.53
2019-03-27T21:53:20.021Z,10.53
2019-03-27T21:55:47.846Z,10.60
2019-03-27T21:58:15.671Z,10.60
2019-03-27T22:00:43.544Z,10.59
2019-03-27T22:03:11.404Z,10.59
2019-03-27T22:05:39.481Z,10.54
2019-03-27T22:08:07.513Z,10.63
2019-03-27T22:10:35.465Z,10.63
2019-03-27T22:13:03.368Z,10.63
2019-03-27T22:15:31.205Z,10.47
2019-03-27T22:17:59.024Z,10.48
2019-03-27T22:20:26.849Z,10.44
2019-03-27T22:22:54.719Z,10.37
2019-03-27T22:25:34.936Z,10.33
2019-03-27T22:27:52.275Z,10.48
2019-03-27T22:30:20.132Z,10.48
2019-03-27T22:32:48.037Z,10.43
2019-03-27T22:35:15.884Z,10.38
2019-03-27T22:37:43.736Z,10.42
2019-03-27T22:40:11.594Z,10.47
2019-03-27T22:42:41.434Z,10.51
2019-03-27T22:45:10.157Z,10.54
2019-03-27T22:47:37.963Z,10.58
2019-03-27T22:50:07.999Z,10.58
2019-03-27T22:52:35.838Z,10.58
2019-03-27T22:55:03.835Z,10.34
2019-03-27T22:57:31.632Z,10.34
2019-03-27T22:59:59.463Z,10.39
2019-03-27T23:02:27.332Z,10.39
2019-03-27T23:04:55.160Z,10.50
2019-03-27T23:07:22.970Z,10.48
2019-03-27T23:09:50.860Z,10.53
2019-03-27T23:12:18.671Z,10.55
2019-03-27T23:14:46.533Z,10.55
2019-03-27T23:17:14.317Z,10.53
2019-03-27T23:19:42.112Z,10.51
2019-03-27T23:22:09.930Z,10.54
2019-03-27T23:24:37.776Z,10.59
2019-03-27T23:27:05.633Z,10.60
2019-03-27T23:29:33.502Z,10.54
2019-03-27T23:32:01.305Z,10.54
2019-03-27T23:34:29.106Z,10.52
2019-03-27T23:36:56.992Z,10.58
2019-03-27T23:39:24.892Z,10.44
2019-03-27T23:41:52.809Z,10.43
2019-03-27T23:44:20.672Z,10.39
2019-03-27T23:46:48.528Z,10.35
2019-03-27T23:49:16.365Z,10.36
2019-03-27T23:51:44.235Z,10.42
2019-03-27T23:54:12.071Z,10.39
2019-03-27T23:56:39.983Z,10.26
2019-03-27T23:59:07.851Z,10.31
